Time;durP1;ratioP1;P1;durP2;ratioP2;P2;SDS_P1;SDS_P2;PMS_P1;PMS_P2;Temp;Humidity;BMP_temperature;BMP_pressure;BME280_temperature;BME280_humidity;BME280_pressure;Samples;Min_cycle;Max_cycle;Signal;HPM_P1;HPM_P2
2023/06/06 00:00:11;;;;;;;12.52;6.38;;;12.70;99.90;;;;;;5071028;28;20053;-71
2023/06/06 00:02:46;;;;;;;11.95;6.07;;;12.60;99.90;;;;;;5072651;28;20119;-71
2023/06/06 00:05:13;;;;;;;11.82;6.72;;;12.60;99.90;;;;;;5071096;28;20028;-71
2023/06/06 00:07:43;;;;;;;13.40;7.22;;;12.50;99.90;;;;;;5069611;28;20480;-71
2023/06/06 00:10:14;;;;;;;10.48;6.40;;;12.50;99.90;;;;;;5073535;28;20077;-71
2023/06/06 00:12:46;;;;;;;13.90;7.10;;;12.50;99.90;;;;;;5071038;28;20536;-71
2023/06/06 00:15:14;;;;;;;13.18;6.18;;;12.40;99.90;;;;;;5068763;28;20024;-71
2023/06/06 00:17:42;;;;;;;17.23;6.80;;;12.40;99.90;;;;;;5070658;28;20035;-71
2023/06/06 00:20:09;;;;;;;12.18;6.50;;;12.30;99.90;;;;;;5072310;28;20059;-70
2023/06/06 00:22:36;;;;;;;12.32;6.68;;;12.30;99.90;;;;;;5070093;28;20028;-71
2023/06/06 00:25:03;;;;;;;11.55;6.35;;;12.30;99.90;;;;;;5070318;28;20040;-70
2023/06/06 00:27:29;;;;;;;11.60;6.18;;;12.20;99.90;;;;;;5071365;28;20012;-71
2023/06/06 00:29:55;;;;;;;12.35;6.32;;;12.20;99.90;;;;;;5071424;28;20477;-71
2023/06/06 00:32:21;;;;;;;9.93;5.82;;;12.10;99.90;;;;;;5067933;28;20020;-71
2023/06/06 00:34:46;;;;;;;14.52;6.18;;;12.10;99.90;;;;;;5073542;28;20102;-71
2023/06/06 00:37:12;;;;;;;12.93;6.95;;;12.00;99.90;;;;;;5068191;28;20072;-71
2023/06/06 00:39:37;;;;;;;14.68;6.65;;;11.90;99.90;;;;;;5069596;28;20123;-71
2023/06/06 00:42:03;;;;;;;14.40;6.40;;;11.90;99.90;;;;;;5071700;28;20029;-71
2023/06/06 00:44:28;;;;;;;12.18;6.70;;;11.90;99.90;;;;;;5069735;28;20028;-71
2023/06/06 00:46:54;;;;;;;12.93;6.18;;;11.90;99.90;;;;;;5071396;28;20032;-70
2023/06/06 00:49:20;;;;;;;10.88;6.45;;;11.80;99.90;;;;;;5071829;28;20028;-71
2023/06/06 00:51:46;;;;;;;11.68;6.68;;;11.80;99.90;;;;;;5070192;28;20058;-71
2023/06/06 00:54:13;;;;;;;12.30;6.75;;;11.80;99.90;;;;;;5072370;28;20036;-71
2023/06/06 00:56:43;;;;;;;13.40;6.70;;;11.70;99.90;;;;;;5068824;28;20032;-70
2023/06/06 00:59:09;;;;;;;13.60;7.18;;;11.70;99.90;;;;;;5071406;28;20493;-71
2023/06/06 01:01:36;;;;;;;13.23;6.47;;;11.70;99.90;;;;;;5070281;28;20025;-70
2023/06/06 01:04:07;;;;;;;16.08;7.40;;;11.60;99.90;;;;;;5066659;28;20077;-71
2023/06/06 01:06:33;;;;;;;13.98;6.80;;;11.60;99.90;;;;;;5064746;28;20016;-71
2023/06/06 01:09:01;;;;;;;11.88;6.32;;;11.50;99.90;;;;;;5071300;28;20032;-70
2023/06/06 01:11:37;;;;;;;11.07;6.43;;;11.50;99.90;;;;;;5068793;28;20460;-70
2023/06/06 01:14:13;;;;;;;10.63;6.50;;;11.50;99.90;;;;;;5070189;28;20029;-70
2023/06/06 01:16:41;;;;;;;12.82;6.30;;;11.50;99.90;;;;;;5064300;28;20107;-70
2023/06/06 01:19:16;;;;;;;12.88;6.57;;;11.40;99.90;;;;;;5069568;28;20031;-70
2023/06/06 01:21:42;;;;;;;13.65;7.55;;;11.40;99.90;;;;;;5068691;28;20029;-71
2023/06/06 01:24:08;;;;;;;14.40;7.10;;;11.30;99.90;;;;;;5070927;28;20031;-70
2023/06/06 01:26:34;;;;;;;13.52;6.78;;;11.30;99.90;;;;;;5066489;28;20078;-70
2023/06/06 01:28:59;;;;;;;16.35;6.95;;;11.30;99.90;;;;;;5072206;28;20028;-71
2023/06/06 01:31:40;;;;;;;11.95;6.78;;;11.30;99.90;;;;;;5067601;28;20032;-71
2023/06/06 01:34:18;;;;;;;15.82;6.97;;;11.30;99.90;;;;;;5069086;28;20035;-71
2023/06/06 01:37:16;;;;;;;11.88;6.65;;;11.20;99.90;;;;;;5066778;28;20523;-70
2023/06/06 01:39:47;;;;;;;10.65;6.70;;;11.20;99.90;;;;;;5036096;28;20083;-70
2023/06/06 01:42:15;;;;;;;14.68;6.68;;;11.10;99.90;;;;;;5070265;28;20047;-70
2023/06/06 01:44:42;;;;;;;13.20;6.97;;;11.10;99.90;;;;;;5071818;28;20040;-70
2023/06/06 01:47:08;;;;;;;12.95;6.82;;;11.10;99.90;;;;;;5067636;28;20020;-70
2023/06/06 01:49:35;;;;;;;15.32;7.57;;;11.10;99.90;;;;;;5070314;28;20038;-70
2023/06/06 01:52:01;;;;;;;13.73;7.28;;;11.10;99.90;;;;;;5067353;28;20033;-70
2023/06/06 01:54:28;;;;;;;16.88;7.93;;;11.00;99.90;;;;;;5069080;28;20105;-70
2023/06/06 01:56:54;;;;;;;12.15;7.10;;;11.00;99.90;;;;;;5066557;28;20535;-70
2023/06/06 01:59:19;;;;;;;11.20;6.40;;;11.00;99.90;;;;;;5069570;28;20107;-71
2023/06/06 02:01:45;;;;;;;12.75;6.97;;;11.00;99.90;;;;;;5060104;28;20020;-71
2023/06/06 02:04:10;;;;;;;12.98;7.28;;;10.90;99.90;;;;;;5051682;28;20035;-70
2023/06/06 02:06:38;;;;;;;13.27;7.00;;;10.90;99.90;;;;;;5065806;28;20041;-70
2023/06/06 02:09:03;;;;;;;12.63;6.80;;;10.90;99.90;;;;;;5063662;28;20059;-70
2023/06/06 02:11:29;;;;;;;15.57;6.95;;;10.80;99.90;;;;;;5064384;28;20025;-71
2023/06/06 02:13:57;;;;;;;17.70;6.63;;;10.80;99.90;;;;;;5071098;28;20025;-70
2023/06/06 02:16:23;;;;;;;14.40;7.65;;;10.80;99.90;;;;;;5067489;28;20108;-71
2023/06/06 02:18:49;;;;;;;13.77;6.75;;;10.80;99.90;;;;;;5070752;28;20029;-71
2023/06/06 02:21:15;;;;;;;13.45;6.82;;;10.70;99.90;;;;;;5069413;28;20035;-71
2023/06/06 02:23:40;;;;;;;14.13;6.70;;;10.70;99.90;;;;;;5069952;28;20124;-71
2023/06/06 02:26:06;;;;;;;14.43;6.63;;;10.70;99.90;;;;;;5071239;28;20074;-71
2023/06/06 02:28:31;;;;;;;11.10;6.82;;;10.60;99.90;;;;;;5059317;28;20032;-71
2023/06/06 02:30:57;;;;;;;13.80;6.93;;;10.70;99.90;;;;;;5066319;28;20020;-71
2023/06/06 02:33:22;;;;;;;12.73;6.80;;;10.60;99.90;;;;;;5055560;28;20373;-70
2023/06/06 02:35:50;;;;;;;13.32;7.85;;;10.60;99.90;;;;;;5067821;28;20020;-71
2023/06/06 02:38:22;;;;;;;11.88;6.78;;;10.50;99.90;;;;;;5068276;28;20547;-71
2023/06/06 02:40:47;;;;;;;17.25;7.63;;;10.60;99.90;;;;;;5067215;28;20021;-70
2023/06/06 02:43:13;;;;;;;12.68;7.30;;;10.50;99.90;;;;;;5068161;28;20514;-71
2023/06/06 02:45:38;;;;;;;14.40;7.25;;;10.50;99.90;;;;;;5068261;28;20037;-70
2023/06/06 02:48:04;;;;;;;14.80;6.65;;;10.50;99.90;;;;;;5063183;28;20103;-71
2023/06/06 02:50:31;;;;;;;14.27;6.53;;;10.50;99.90;;;;;;5069122;28;20040;-71
2023/06/06 02:53:00;;;;;;;13.63;6.60;;;10.50;99.90;;;;;;5069495;28;20449;-70
2023/06/06 02:55:25;;;;;;;14.38;7.70;;;10.40;99.90;;;;;;5065725;28;20025;-70
2023/06/06 02:57:51;;;;;;;13.23;7.38;;;10.40;99.90;;;;;;5068597;28;20024;-71
2023/06/06 03:00:17;;;;;;;11.68;6.90;;;10.40;99.90;;;;;;5064210;28;20025;-71
2023/06/06 03:02:43;;;;;;;13.15;7.43;;;10.40;99.90;;;;;;5069977;28;20067;-70
2023/06/06 03:05:09;;;;;;;12.57;6.30;;;10.40;99.90;;;;;;5067880;28;20056;-70
2023/06/06 03:07:37;;;;;;;15.70;8.63;;;10.30;99.90;;;;;;5067407;28;20027;-71
2023/06/06 03:10:03;;;;;;;13.32;6.90;;;10.30;99.90;;;;;;5065443;28;20033;-70
2023/06/06 03:12:28;;;;;;;12.77;7.20;;;10.30;99.90;;;;;;5067576;28;20025;-71
2023/06/06 03:14:54;;;;;;;13.23;7.32;;;10.30;99.90;;;;;;5066198;28;20508;-70
2023/06/06 03:17:19;;;;;;;12.60;7.32;;;10.40;99.90;;;;;;5067632;28;20036;-70
2023/06/06 03:19:48;;;;;;;15.27;6.60;;;10.30;99.90;;;;;;5068656;28;20146;-70
2023/06/06 03:22:15;;;;;;;13.23;6.88;;;10.30;99.90;;;;;;5068614;28;20499;-71
2023/06/06 03:24:41;;;;;;;15.45;6.82;;;10.30;99.90;;;;;;5069214;28;20032;-70
2023/06/06 03:27:06;;;;;;;17.83;7.60;;;10.30;99.90;;;;;;5066935;28;20029;-70
2023/06/06 03:29:32;;;;;;;16.20;7.57;;;10.30;99.90;;;;;;5066435;28;20047;-70
2023/06/06 03:31:58;;;;;;;12.20;7.90;;;10.30;99.90;;;;;;5067422;28;20029;-70
2023/06/06 03:34:25;;;;;;;15.30;7.53;;;10.20;99.90;;;;;;5066391;28;20025;-71
2023/06/06 03:36:52;;;;;;;11.90;7.25;;;10.20;99.90;;;;;;5069662;28;20200;-70
2023/06/06 03:39:17;;;;;;;16.70;8.65;;;10.20;99.90;;;;;;5068834;28;20033;-70
2023/06/06 03:41:43;;;;;;;14.80;7.30;;;10.20;99.90;;;;;;5066007;28;20029;-70
2023/06/06 03:44:08;;;;;;;16.15;8.10;;;10.20;99.90;;;;;;5068423;28;20506;-70
2023/06/06 03:46:34;;;;;;;18.60;8.45;;;10.20;99.90;;;;;;5067058;28;20031;-71
2023/06/06 03:49:00;;;;;;;18.85;8.48;;;10.20;99.90;;;;;;5070450;28;20124;-71
2023/06/06 03:51:26;;;;;;;16.00;8.20;;;10.20;99.90;;;;;;5072413;28;20440;-72
2023/06/06 03:53:51;;;;;;;16.65;8.10;;;10.20;99.90;;;;;;5071011;28;20067;-72
2023/06/06 03:56:17;;;;;;;14.90;8.10;;;10.20;99.90;;;;;;5069794;28;20464;-71
2023/06/06 03:58:43;;;;;;;14.50;7.72;;;10.20;99.90;;;;;;5072084;28;20032;-71
2023/06/06 04:01:09;;;;;;;14.48;7.03;;;10.20;99.90;;;;;;5072510;28;20046;-71
2023/06/06 04:03:37;;;;;;;12.23;7.35;;;10.20;99.90;;;;;;5072722;28;20111;-71
2023/06/06 04:06:05;;;;;;;14.95;8.88;;;10.30;99.90;;;;;;5070514;28;20028;-72
2023/06/06 04:08:32;;;;;;;17.33;9.10;;;10.30;99.90;;;;;;5070357;28;20060;-72
2023/06/06 04:10:57;;;;;;;12.65;8.02;;;10.30;99.90;;;;;;5063293;28;20030;-71
2023/06/06 04:13:23;;;;;;;21.30;8.90;;;10.30;99.90;;;;;;5067190;28;20032;-71
2023/06/06 04:15:49;;;;;;;19.55;9.07;;;10.30;99.90;;;;;;5071295;28;20472;-71
2023/06/06 04:18:15;;;;;;;18.13;8.10;;;10.30;99.90;;;;;;5068443;28;20029;-71
2023/06/06 04:20:43;;;;;;;16.42;8.10;;;10.30;99.90;;;;;;5071827;28;20024;-71
2023/06/06 04:23:09;;;;;;;15.68;8.30;;;10.40;99.90;;;;;;5069090;28;20036;-71
2023/06/06 04:25:34;;;;;;;14.95;8.73;;;10.40;99.90;;;;;;5061012;28;20024;-71
2023/06/06 04:28:00;;;;;;;13.82;8.57;;;10.40;99.90;;;;;;5071074;28;20456;-70
2023/06/06 04:30:29;;;;;;;16.80;8.73;;;10.40;99.90;;;;;;5068925;28;20025;-70
2023/06/06 04:32:55;;;;;;;16.77;8.30;;;10.50;99.90;;;;;;5068163;28;20162;-70
2023/06/06 04:35:20;;;;;;;19.77;8.82;;;10.50;99.90;;;;;;5070828;28;20033;-72
2023/06/06 04:37:53;;;;;;;18.42;8.38;;;10.60;99.90;;;;;;5071586;28;20049;-71
2023/06/06 04:40:21;;;;;;;16.23;8.80;;;10.60;99.90;;;;;;5067647;28;20111;-71
2023/06/06 04:42:47;;;;;;;19.55;9.05;;;10.70;99.90;;;;;;5069088;28;20024;-71
2023/06/06 04:45:13;;;;;;;16.02;8.18;;;10.70;99.90;;;;;;5068737;28;20078;-71
2023/06/06 04:47:40;;;;;;;14.40;8.55;;;10.80;99.90;;;;;;5065717;28;20098;-71
2023/06/06 04:50:07;;;;;;;14.02;8.05;;;10.80;99.90;;;;;;5069687;28;20488;-70
2023/06/06 04:52:34;;;;;;;17.90;8.70;;;10.90;99.90;;;;;;5066954;28;20023;-70
2023/06/06 04:55:03;;;;;;;14.88;8.90;;;11.10;99.90;;;;;;5063793;28;20090;-70
2023/06/06 04:57:29;;;;;;;14.38;7.63;;;11.30;99.90;;;;;;5065404;28;20024;-70
2023/06/06 04:59:56;;;;;;;13.57;6.80;;;11.60;99.90;;;;;;5064069;28;20039;-70
2023/06/06 05:02:28;;;;;;;11.50;6.03;;;11.90;99.90;;;;;;5063428;28;20021;-70
2023/06/06 05:04:56;;;;;;;14.40;6.68;;;12.20;99.90;;;;;;5054850;28;20027;-70
2023/06/06 05:07:25;;;;;;;9.65;5.80;;;12.60;99.90;;;;;;5063979;28;20042;-71
2023/06/06 05:09:52;;;;;;;11.05;5.90;;;12.80;99.90;;;;;;5072029;28;20388;-70
2023/06/06 05:12:18;;;;;;;10.20;6.00;;;13.00;99.90;;;;;;5071122;28;20452;-71
2023/06/06 05:14:43;;;;;;;11.65;6.03;;;13.30;99.90;;;;;;5062392;28;20063;-71
2023/06/06 05:17:09;;;;;;;11.25;6.13;;;13.50;99.90;;;;;;5067175;28;20021;-70
2023/06/06 05:19:35;;;;;;;11.50;5.70;;;13.70;99.90;;;;;;5064194;28;20052;-71
2023/06/06 05:22:01;;;;;;;9.40;5.88;;;13.90;99.90;;;;;;5065978;28;20455;-70
2023/06/06 05:24:26;;;;;;;8.50;5.22;;;14.00;99.90;;;;;;5069427;28;20373;-71
2023/06/06 05:26:52;;;;;;;9.00;5.40;;;14.20;99.90;;;;;;5066686;28;20036;-71
2023/06/06 05:29:17;;;;;;;11.93;5.80;;;14.30;99.90;;;;;;5063333;28;20044;-70
2023/06/06 05:31:43;;;;;;;12.57;5.88;;;14.50;99.90;;;;;;5068967;28;20059;-71
2023/06/06 05:34:08;;;;;;;9.73;5.22;;;14.50;99.90;;;;;;5068495;28;20056;-70
2023/06/06 05:36:34;;;;;;;10.45;5.93;;;14.50;99.90;;;;;;5064370;28;20400;-70
2023/06/06 05:39:00;;;;;;;10.73;5.55;;;14.50;99.90;;;;;;5069741;28;20123;-71
2023/06/06 05:41:26;;;;;;;10.00;5.70;;;14.40;99.90;;;;;;5063274;28;20319;-71
2023/06/06 05:43:52;;;;;;;11.02;5.20;;;14.50;99.90;;;;;;5071140;28;20484;-71
2023/06/06 05:46:18;;;;;;;13.15;5.20;;;14.50;99.90;;;;;;5068693;28;20024;-75
2023/06/06 05:48:44;;;;;;;11.40;5.93;;;14.60;99.90;;;;;;5051668;28;20495;-70
2023/06/06 05:51:10;;;;;;;11.80;4.72;;;14.60;99.90;;;;;;5066407;28;20032;-70
2023/06/06 05:53:41;;;;;;;10.88;5.07;;;14.60;99.90;;;;;;5068424;28;20131;-70
2023/06/06 05:56:06;;;;;;;13.95;5.50;;;14.60;99.90;;;;;;5067517;28;20100;-70
2023/06/06 05:58:32;;;;;;;9.98;4.82;;;14.50;99.90;;;;;;5065254;28;20124;-70
2023/06/06 06:00:58;;;;;;;8.18;5.57;;;14.50;99.90;;;;;;5064914;28;20484;-70
2023/06/06 06:03:24;;;;;;;10.00;5.28;;;14.50;99.90;;;;;;5067719;28;20044;-70
2023/06/06 06:05:50;;;;;;;12.43;5.13;;;14.50;99.90;;;;;;5066657;28;20024;-70
2023/06/06 06:08:16;;;;;;;8.02;4.88;;;14.50;99.90;;;;;;5051811;28;20475;-70
2023/06/06 06:10:42;;;;;;;17.35;6.20;;;14.60;99.90;;;;;;5061636;28;20021;-70
2023/06/06 06:13:07;;;;;;;8.52;5.55;;;14.60;99.90;;;;;;5067898;28;20029;-70
2023/06/06 06:15:34;;;;;;;12.45;5.60;;;14.70;99.90;;;;;;5067714;28;20025;-70
2023/06/06 06:18:01;;;;;;;12.18;5.72;;;14.70;99.90;;;;;;5071634;28;20021;-69
2023/06/06 06:20:28;;;;;;;11.35;5.03;;;14.70;99.90;;;;;;5068979;28;20104;-70
2023/06/06 06:22:53;;;;;;;11.95;4.95;;;14.90;99.90;;;;;;5068645;28;20036;-69
2023/06/06 06:25:20;;;;;;;5.65;4.13;;;15.00;99.90;;;;;;5070681;28;20027;-70
2023/06/06 06:27:46;;;;;;;10.82;5.10;;;15.00;99.90;;;;;;5070746;28;20036;-70
2023/06/06 06:30:13;;;;;;;12.10;5.22;;;15.10;99.90;;;;;;5070978;28;20078;-70
2023/06/06 06:32:40;;;;;;;11.52;5.25;;;15.10;99.90;;;;;;5065551;28;20079;-70
2023/06/06 06:35:07;;;;;;;9.18;5.18;;;15.20;99.90;;;;;;5071244;28;20070;-70
2023/06/06 06:37:36;;;;;;;12.73;5.47;;;15.20;99.90;;;;;;5036714;28;20139;-70
2023/06/06 06:40:09;;;;;;;14.48;4.15;;;15.30;99.90;;;;;;5067257;28;20043;-71
2023/06/06 06:42:39;;;;;;;8.23;3.90;;;15.30;99.90;;;;;;5070064;28;20056;-69
2023/06/06 06:45:12;;;;;;;9.73;4.97;;;15.40;99.90;;;;;;5070589;28;20492;-69
2023/06/06 06:47:39;;;;;;;7.95;4.03;;;15.50;99.90;;;;;;5049625;28;20040;-69
2023/06/06 06:50:06;;;;;;;11.63;4.80;;;15.60;99.90;;;;;;5062672;28;20426;-70
2023/06/06 06:52:33;;;;;;;10.48;4.32;;;15.70;99.90;;;;;;5051071;28;20459;-71
2023/06/06 06:55:00;;;;;;;9.90;4.65;;;15.70;99.90;;;;;;5071008;28;20111;-70
2023/06/06 06:57:29;;;;;;;8.90;4.28;;;15.70;99.90;;;;;;5070397;28;20012;-70
2023/06/06 06:59:58;;;;;;;10.70;4.63;;;15.70;99.90;;;;;;5069658;28;20032;-70
2023/06/06 07:02:26;;;;;;;7.38;4.82;;;15.70;99.90;;;;;;5052548;28;20070;-71
2023/06/06 07:04:57;;;;;;;11.48;4.22;;;15.80;99.90;;;;;;5053000;28;20399;-71
2023/06/06 07:07:23;;;;;;;8.02;4.45;;;15.80;99.90;;;;;;5070286;28;20056;-70
2023/06/06 07:09:49;;;;;;;8.20;5.03;;;16.00;99.90;;;;;;5049609;28;20087;-70
2023/06/06 07:12:15;;;;;;;11.05;4.07;;;16.10;99.90;;;;;;5062642;28;20017;-70
2023/06/06 07:14:41;;;;;;;7.07;4.35;;;16.20;99.90;;;;;;5070264;28;20051;-69
2023/06/06 07:17:09;;;;;;;8.63;4.13;;;16.20;99.90;;;;;;5053177;28;20396;-70
2023/06/06 07:19:35;;;;;;;9.68;4.53;;;16.30;99.90;;;;;;5070293;28;20021;-69
2023/06/06 07:22:02;;;;;;;5.95;4.03;;;16.30;99.90;;;;;;5052820;28;20388;-70
2023/06/06 07:24:28;;;;;;;9.52;5.00;;;16.40;99.90;;;;;;5053618;28;20033;-70
2023/06/06 07:26:54;;;;;;;6.00;3.85;;;16.40;99.90;;;;;;5073712;28;20025;-70
2023/06/06 07:29:21;;;;;;;12.07;4.55;;;16.50;99.90;;;;;;5055762;28;20036;-70
2023/06/06 07:31:47;;;;;;;10.80;4.93;;;16.60;99.90;;;;;;5074534;28;20032;-70
2023/06/06 07:34:13;;;;;;;6.65;4.00;;;16.60;99.90;;;;;;5073451;28;20021;-69
2023/06/06 07:36:39;;;;;;;9.00;4.88;;;16.70;99.90;;;;;;5073053;28;20036;-70
2023/06/06 07:39:04;;;;;;;10.50;4.90;;;16.80;99.90;;;;;;5074301;28;20512;-70
2023/06/06 07:41:31;;;;;;;8.07;4.63;;;16.80;99.90;;;;;;5055475;28;20574;-70
2023/06/06 07:43:57;;;;;;;6.90;4.68;;;16.90;99.90;;;;;;5065424;28;20116;-70
2023/06/06 07:46:24;;;;;;;7.00;3.63;;;17.10;99.90;;;;;;5054047;28;20031;-70
2023/06/06 07:48:50;;;;;;;10.02;4.45;;;17.20;99.90;;;;;;5058874;28;20024;-70
2023/06/06 07:51:16;;;;;;;8.60;3.72;;;17.30;99.90;;;;;;5073505;28;20499;-70
2023/06/06 07:53:43;;;;;;;7.57;3.80;;;17.30;99.90;;;;;;5074197;28;20100;-69
2023/06/06 07:56:09;;;;;;;9.40;3.75;;;17.30;99.90;;;;;;5072657;28;20016;-70
2023/06/06 07:58:53;;;;;;;7.18;4.18;;;17.40;99.90;;;;;;5073135;28;20032;-70
2023/06/06 08:01:20;;;;;;;9.52;4.68;;;17.60;99.90;;;;;;5072157;28;20044;-70
2023/06/06 08:03:49;;;;;;;6.85;4.07;;;17.70;99.90;;;;;;5072622;28;20033;-70
2023/06/06 08:06:19;;;;;;;10.25;4.78;;;17.70;99.90;;;;;;5070377;28;20132;-70
2023/06/06 08:08:48;;;;;;;8.55;4.38;;;17.80;99.90;;;;;;5058157;28;20059;-70
2023/06/06 08:11:14;;;;;;;7.70;4.00;;;17.90;99.90;;;;;;5071401;28;20459;-70
2023/06/06 08:13:40;;;;;;;8.85;4.32;;;18.00;99.90;;;;;;5073199;28;20511;-70
2023/06/06 08:16:06;;;;;;;7.10;4.05;;;18.10;99.90;;;;;;5071903;28;20025;-70
2023/06/06 08:18:31;;;;;;;14.30;4.95;;;18.10;99.90;;;;;;5072414;28;20115;-70
2023/06/06 08:20:57;;;;;;;9.15;3.97;;;18.20;99.90;;;;;;5073821;28;20024;-70
2023/06/06 08:23:25;;;;;;;12.45;4.50;;;18.30;99.90;;;;;;5054309;28;20040;-70
2023/06/06 08:25:55;;;;;;;7.25;3.90;;;18.30;99.90;;;;;;5072138;28;20560;-70
2023/06/06 08:28:25;;;;;;;10.98;4.70;;;18.40;99.90;;;;;;5071473;28;20028;-71
2023/06/06 08:30:52;;;;;;;11.77;4.22;;;18.50;99.90;;;;;;5068740;28;20119;-70
2023/06/06 08:33:19;;;;;;;9.55;3.80;;;18.50;99.90;;;;;;5073007;28;20427;-70
2023/06/06 08:35:45;;;;;;;7.53;3.67;;;18.70;99.90;;;;;;5071102;28;20108;-70
2023/06/06 08:38:11;;;;;;;8.15;3.88;;;18.80;99.90;;;;;;5070524;28;20532;-70
2023/06/06 08:40:37;;;;;;;6.50;3.75;;;18.80;99.90;;;;;;5068483;28;20017;-70
2023/06/06 08:43:04;;;;;;;9.45;4.43;;;18.90;99.90;;;;;;5061270;28;20037;-70
2023/06/06 08:45:32;;;;;;;9.02;3.83;;;18.90;99.90;;;;;;5058045;28;20040;-70
2023/06/06 08:47:58;;;;;;;12.80;4.22;;;18.90;99.90;;;;;;5062714;28;20028;-70
2023/06/06 08:50:26;;;;;;;8.65;4.50;;;19.10;99.90;;;;;;5063466;28;20024;-70
2023/06/06 08:52:52;;;;;;;9.57;4.28;;;19.20;99.90;;;;;;5071277;28;20158;-70
2023/06/06 08:55:19;;;;;;;11.05;4.78;;;19.30;99.90;;;;;;5066776;28;20052;-70
2023/06/06 08:57:47;;;;;;;8.07;3.60;;;19.40;99.90;;;;;;5070450;28;20033;-71
2023/06/06 09:00:21;;;;;;;9.35;3.72;;;19.50;99.90;;;;;;5071337;28;20021;-70
2023/06/06 09:02:47;;;;;;;5.80;3.40;;;19.50;99.90;;;;;;5059807;28;20028;-70
2023/06/06 09:05:16;;;;;;;7.97;3.22;;;19.60;99.90;;;;;;5064879;28;20062;-70
2023/06/06 09:07:42;;;;;;;9.18;4.00;;;19.70;99.90;;;;;;5058350;28;20345;-70
2023/06/06 09:10:08;;;;;;;8.95;3.85;;;19.90;99.90;;;;;;5055865;28;20033;-71
2023/06/06 09:12:41;;;;;;;10.18;3.90;;;19.90;99.60;;;;;;5060045;28;20361;-71
2023/06/06 09:15:07;;;;;;;8.52;3.55;;;20.00;99.10;;;;;;5067884;28;20031;-70
2023/06/06 09:17:40;;;;;;;8.60;3.42;;;20.00;99.10;;;;;;5068747;28;20383;-70
2023/06/06 09:20:12;;;;;;;8.90;3.63;;;20.10;98.70;;;;;;5071234;28;20034;-70
2023/06/06 09:22:49;;;;;;;11.50;3.55;;;20.10;98.50;;;;;;5072079;28;20104;-70
2023/06/06 09:25:21;;;;;;;9.10;3.50;;;20.20;98.70;;;;;;5067489;28;20274;-70
2023/06/06 09:27:47;;;;;;;;;;;20.30;98.50;;;;;;5067243;28;20052;-70
2023/06/06 09:30:24;;;;;;;9.38;3.95;;;20.40;98.60;;;;;;5065459;28;19919;-70
2023/06/06 09:33:04;;;;;;;5.03;2.88;;;20.50;98.40;;;;;;5066312;28;20373;-70
2023/06/06 09:35:42;;;;;;;7.13;3.05;;;20.60;98.20;;;;;;5064747;28;20029;-70
2023/06/06 09:38:15;;;;;;;8.95;3.20;;;20.70;97.50;;;;;;5064074;28;20041;-70
2023/06/06 09:40:46;;;;;;;7.38;2.78;;;20.70;97.70;;;;;;5051065;28;20066;-70
2023/06/06 09:43:11;;;;;;;6.40;3.13;;;20.90;97.30;;;;;;5062521;28;20036;-70
2023/06/06 09:46:04;;;;;;;9.05;3.28;;;20.90;96.50;;;;;;5055619;28;20035;-70
2023/06/06 09:48:29;;;;;;;;;;;21.00;96.70;;;;;;5070457;28;20021;-70
2023/06/06 09:50:56;;;;;;;5.95;2.78;;;21.10;96.80;;;;;;5067787;28;19962;-70
2023/06/06 09:53:25;;;;;;;7.63;3.03;;;21.30;96.50;;;;;;5070283;28;20066;-70
2023/06/06 09:55:52;;;;;;;8.63;3.10;;;21.40;96.10;;;;;;5070097;28;20048;-71
2023/06/06 09:58:20;;;;;;;8.00;3.22;;;21.50;95.20;;;;;;5070578;28;20020;-71
2023/06/06 10:00:48;;;;;;;7.78;2.97;;;21.50;94.60;;;;;;5065241;28;20365;-70
2023/06/06 10:03:21;;;;;;;6.47;2.75;;;21.50;94.20;;;;;;5063011;28;20040;-70
2023/06/06 10:05:48;;;;;;;14.93;3.40;;;21.50;94.40;;;;;;5064643;28;20372;-70
2023/06/06 10:08:15;;;;;;;5.93;2.40;;;21.50;94.10;;;;;;5063777;28;20104;-71
2023/06/06 10:10:43;;;;;;;6.05;2.60;;;21.60;93.50;;;;;;5069025;28;20488;-70
2023/06/06 10:13:12;;;;;;;5.60;2.63;;;21.70;93.40;;;;;;5067480;28;20025;-70
2023/06/06 10:15:38;;;;;;;7.55;3.20;;;21.70;93.00;;;;;;5050147;28;20453;-71
2023/06/06 10:18:04;;;;;;;9.20;2.97;;;21.70;93.20;;;;;;5067737;28;20024;-70
2023/06/06 10:20:32;;;;;;;4.68;2.22;;;21.80;93.30;;;;;;5059727;28;20106;-70
2023/06/06 10:23:01;;;;;;;8.93;2.92;;;22.00;93.30;;;;;;5071107;28;20041;-70
2023/06/06 10:25:26;;;;;;;9.77;2.45;;;22.10;93.00;;;;;;5067788;28;20028;-72
2023/06/06 10:28:21;;;;;;;6.65;1.95;;;22.20;93.40;;;;;;5067954;28;20032;-70
2023/06/06 10:31:10;;;;;;;8.00;2.15;;;22.40;92.70;;;;;;5069536;28;20021;-70
2023/06/06 10:33:47;;;;;;;7.50;2.25;;;22.60;91.90;;;;;;5053223;28;20492;-70
2023/06/06 10:36:17;;;;;;;7.05;2.05;;;22.70;91.70;;;;;;5067298;28;20443;-70
2023/06/06 10:39:19;;;;;;;4.63;1.88;;;22.70;91.30;;;;;;5066996;28;20475;-71
2023/06/06 10:41:56;;;;;;;6.30;2.50;;;22.80;91.00;;;;;;5071425;28;20128;-70
2023/06/06 10:44:45;;;;;;;4.47;2.15;;;22.90;90.50;;;;;;5064349;28;20055;-71
2023/06/06 10:47:27;;;;;;;10.02;2.85;;;23.00;90.30;;;;;;5055252;28;20037;-70
2023/06/06 10:50:11;;;;;;;5.05;2.13;;;22.90;90.40;;;;;;5050976;28;20031;-70
2023/06/06 10:52:59;;;;;;;6.95;2.50;;;22.90;89.20;;;;;;5066243;28;20021;-70
2023/06/06 10:55:24;;;;;;;5.20;2.10;;;23.00;89.50;;;;;;5069374;28;20453;-71
2023/06/06 10:58:00;;;;;;;4.60;2.08;;;23.10;89.80;;;;;;5066736;28;20048;-71
2023/06/06 11:00:25;;;;;;;3.80;1.80;;;23.20;88.80;;;;;;5068919;28;20392;-71
2023/06/06 11:02:58;;;;;;;6.85;2.53;;;23.20;87.50;;;;;;5062094;28;20048;-71
2023/06/06 11:05:24;;;;;;;5.72;2.10;;;23.30;85.90;;;;;;5065620;28;20040;-72
2023/06/06 11:07:54;;;;;;;4.88;1.77;;;23.20;87.00;;;;;;5051192;28;20104;-72
2023/06/06 11:10:21;;;;;;;6.50;2.08;;;23.20;85.60;;;;;;5087547;28;20031;-72
2023/06/06 11:12:49;;;;;;;5.47;2.40;;;23.30;86.20;;;;;;5079988;28;20031;-72
2023/06/06 11:15:31;;;;;;;9.52;2.63;;;23.50;86.60;;;;;;5067060;28;20388;-72
2023/06/06 11:18:03;;;;;;;4.90;2.17;;;23.60;85.90;;;;;;5072175;28;20027;-71
2023/06/06 11:20:37;;;;;;;5.82;2.55;;;23.70;85.00;;;;;;5072183;28;20074;-72
2023/06/06 11:23:03;;;;;;;6.45;2.55;;;23.80;83.70;;;;;;5072731;28;20035;-72
2023/06/06 11:25:35;;;;;;;4.78;2.60;;;23.80;83.60;;;;;;5071228;28;20024;-71
2023/06/06 11:28:01;;;;;;;;;;;23.70;82.50;;;;;;5068543;28;20481;-73
2023/06/06 11:30:34;;;;;;;6.53;1.92;;;23.70;82.30;;;;;;5068500;28;20038;-73
2023/06/06 11:33:01;;;;;;;4.50;1.85;;;23.80;82.90;;;;;;5062069;28;20028;-73
2023/06/06 11:35:32;;;;;;;5.53;1.90;;;23.90;82.90;;;;;;5070117;28;20028;-72
2023/06/06 11:38:01;;;;;;;7.43;3.13;;;24.00;82.10;;;;;;5074016;28;20048;-72
2023/06/06 11:40:27;;;;;;;6.47;2.35;;;24.00;80.30;;;;;;5072464;28;20606;-72
2023/06/06 11:42:53;;;;;;;5.03;2.42;;;24.00;80.90;;;;;;5069869;28;20120;-73
2023/06/06 11:45:19;;;;;;;3.55;1.63;;;24.10;80.70;;;;;;5069492;28;20063;-73
2023/06/06 11:47:45;;;;;;;4.50;2.15;;;24.10;80.60;;;;;;5073792;28;20032;-72
2023/06/06 11:50:12;;;;;;;5.40;1.67;;;24.10;79.80;;;;;;5073451;28;20024;-71
2023/06/06 11:52:50;;;;;;;4.22;1.83;;;24.10;80.60;;;;;;5065932;28;20036;-72
2023/06/06 11:55:17;;;;;;;9.48;2.78;;;24.30;79.80;;;;;;5072811;28;20034;-72
2023/06/06 11:57:43;;;;;;;5.18;1.92;;;24.20;79.00;;;;;;5071350;28;20606;-72
2023/06/06 12:00:15;;;;;;;7.68;2.33;;;24.20;78.70;;;;;;5069773;28;20104;-71
2023/06/06 12:02:40;;;;;;;;;;;24.20;78.60;;;;;;5072740;28;20035;-71
2023/06/06 12:05:20;;;;;;;4.82;2.08;;;24.30;77.80;;;;;;5069392;28;19914;-71
2023/06/06 12:07:47;;;;;;;5.10;1.83;;;24.20;78.20;;;;;;5071668;28;20025;-72
2023/06/06 12:10:21;;;;;;;4.20;1.65;;;24.40;79.20;;;;;;5070760;28;20029;-72
2023/06/06 12:12:48;;;;;;;5.25;2.63;;;24.60;78.00;;;;;;5072572;28;20178;-72
2023/06/06 12:15:13;;;;;;;4.97;1.70;;;24.60;76.90;;;;;;5073395;28;20058;-72
2023/06/06 12:17:39;;;;;;;3.83;1.70;;;24.50;76.70;;;;;;5073722;28;20113;-73
2023/06/06 12:20:05;;;;;;;4.65;1.58;;;24.60;76.50;;;;;;5072775;28;20540;-72
2023/06/06 12:22:32;;;;;;;8.05;2.00;;;24.70;77.30;;;;;;5072898;28;20032;-71
2023/06/06 12:24:58;;;;;;;5.78;1.80;;;24.90;75.80;;;;;;5073438;28;20388;-72
2023/06/06 12:27:27;;;;;;;4.88;1.50;;;24.90;75.70;;;;;;5073191;28;20107;-71
2023/06/06 12:29:55;;;;;;;7.93;2.53;;;24.90;74.70;;;;;;5071811;28;20094;-72
2023/06/06 12:32:23;;;;;;;5.97;1.40;;;24.90;73.00;;;;;;5073350;28;20036;-72
2023/06/06 12:35:05;;;;;;;5.78;2.00;;;24.80;73.10;;;;;;5072888;28;20085;-71
2023/06/06 12:37:39;;;;;;;4.55;1.38;;;25.00;73.10;;;;;;5072111;28;20420;-71
2023/06/06 12:40:26;;;;;;;6.55;2.05;;;25.10;73.40;;;;;;5072575;28;20496;-72
2023/06/06 12:42:56;;;;;;;6.43;2.00;;;25.20;72.20;;;;;;5073398;28;20028;-71
2023/06/06 12:45:24;;;;;;;5.97;2.67;;;25.20;72.10;;;;;;5073256;28;20048;-72
2023/06/06 12:47:51;;;;;;;4.38;1.70;;;25.20;71.50;;;;;;5072895;28;20028;-72